sensor_id;sensor_type;location;lat;lon;timestamp;P1;durP1;ratioP1;P2;durP2;ratioP2
23113;SDS011;11726;50.122;8.832;2023-04-10T00:00:12;13.95;;;9.75;;
23113;SDS011;11726;50.122;8.832;2023-04-10T00:02:40;12.82;;;9.05;;
23113;SDS011;11726;50.122;8.832;2023-04-10T00:05:10;12.02;;;9.75;;
23113;SDS011;11726;50.122;8.832;2023-04-10T00:07:39;12.20;;;10.27;;
23113;SDS011;11726;50.122;8.832;2023-04-10T00:10:08;17.83;;;10.52;;
23113;SDS011;11726;50.122;8.832;2023-04-10T00:12:37;18.00;;;10.35;;
23113;SDS011;11726;50.122;8.832;2023-04-10T00:15:07;16.30;;;10.73;;
23113;SDS011;11726;50.122;8.832;2023-04-10T00:17:35;15.63;;;11.63;;
23113;SDS011;11726;50.122;8.832;2023-04-10T00:20:07;24.58;;;16.42;;
23113;SDS011;11726;50.122;8.832;2023-04-10T00:22:39;18.65;;;12.32;;
23113;SDS011;11726;50.122;8.832;2023-04-10T00:25:10;15.15;;;11.00;;
23113;SDS011;11726;50.122;8.832;2023-04-10T00:27:43;14.32;;;10.60;;
23113;SDS011;11726;50.122;8.832;2023-04-10T00:30:17;17.52;;;11.15;;
23113;SDS011;11726;50.122;8.832;2023-04-10T00:32:46;15.02;;;11.05;;
23113;SDS011;11726;50.122;8.832;2023-04-10T00:35:15;15.77;;;10.57;;
23113;SDS011;11726;50.122;8.832;2023-04-10T00:37:44;14.10;;;10.60;;
23113;SDS011;11726;50.122;8.832;2023-04-10T00:40:13;13.10;;;9.77;;
23113;SDS011;11726;50.122;8.832;2023-04-10T00:42:41;13.82;;;10.00;;
23113;SDS011;11726;50.122;8.832;2023-04-10T00:45:10;13.15;;;10.00;;
23113;SDS011;11726;50.122;8.832;2023-04-10T00:47:39;14.50;;;10.23;;
23113;SDS011;11726;50.122;8.832;2023-04-10T00:50:08;13.30;;;10.27;;
23113;SDS011;11726;50.122;8.832;2023-04-10T00:52:37;12.18;;;9.75;;
23113;SDS011;11726;50.122;8.832;2023-04-10T00:55:05;12.85;;;9.98;;
23113;SDS011;11726;50.122;8.832;2023-04-10T00:57:34;13.20;;;10.27;;
23113;SDS011;11726;50.122;8.832;2023-04-10T01:00:03;11.68;;;8.93;;
23113;SDS011;11726;50.122;8.832;2023-04-10T01:02:32;14.25;;;9.90;;
23113;SDS011;11726;50.122;8.832;2023-04-10T01:05:00;14.80;;;10.10;;
23113;SDS011;11726;50.122;8.832;2023-04-10T01:07:39;12.40;;;9.52;;
23113;SDS011;11726;50.122;8.832;2023-04-10T01:14:03;11.05;;;9.10;;
23113;SDS011;11726;50.122;8.832;2023-04-10T01:16:23;14.32;;;10.13;;
23113;SDS011;11726;50.122;8.832;2023-04-10T01:19:06;12.63;;;9.93;;
23113;SDS011;11726;50.122;8.832;2023-04-10T01:21:45;12.18;;;9.57;;
23113;SDS011;11726;50.122;8.832;2023-04-10T01:24:20;12.40;;;9.82;;
23113;SDS011;11726;50.122;8.832;2023-04-10T01:27:11;11.98;;;9.23;;
23113;SDS011;11726;50.122;8.832;2023-04-10T01:29:56;12.30;;;9.52;;
23113;SDS011;11726;50.122;8.832;2023-04-10T01:32:28;14.88;;;10.57;;
23113;SDS011;11726;50.122;8.832;2023-04-10T01:35:01;12.13;;;9.52;;
23113;SDS011;11726;50.122;8.832;2023-04-10T01:37:35;13.95;;;10.38;;
23113;SDS011;11726;50.122;8.832;2023-04-10T01:40:08;12.77;;;9.88;;
23113;SDS011;11726;50.122;8.832;2023-04-10T01:42:43;12.82;;;9.55;;
23113;SDS011;11726;50.122;8.832;2023-04-10T01:45:18;14.83;;;10.70;;
23113;SDS011;11726;50.122;8.832;2023-04-10T01:47:48;12.00;;;9.95;;
23113;SDS011;11726;50.122;8.832;2023-04-10T01:50:17;14.65;;;10.57;;
23113;SDS011;11726;50.122;8.832;2023-04-10T01:52:50;14.00;;;10.85;;
23113;SDS011;11726;50.122;8.832;2023-04-10T01:55:20;15.77;;;11.00;;
23113;SDS011;11726;50.122;8.832;2023-04-10T01:57:48;14.85;;;9.85;;
23113;SDS011;11726;50.122;8.832;2023-04-10T02:00:18;13.88;;;10.50;;
23113;SDS011;11726;50.122;8.832;2023-04-10T02:02:46;13.48;;;9.77;;
23113;SDS011;11726;50.122;8.832;2023-04-10T02:05:17;17.42;;;10.88;;
23113;SDS011;11726;50.122;8.832;2023-04-10T02:07:54;16.02;;;11.05;;
23113;SDS011;11726;50.122;8.832;2023-04-10T02:13:20;15.40;;;11.70;;
23113;SDS011;11726;50.122;8.832;2023-04-10T02:15:49;14.27;;;10.30;;
23113;SDS011;11726;50.122;8.832;2023-04-10T02:18:30;15.75;;;10.90;;
23113;SDS011;11726;50.122;8.832;2023-04-10T02:21:02;17.13;;;11.63;;
23113;SDS011;11726;50.122;8.832;2023-04-10T02:23:31;14.50;;;10.77;;
23113;SDS011;11726;50.122;8.832;2023-04-10T02:26:04;14.55;;;11.50;;
23113;SDS011;11726;50.122;8.832;2023-04-10T02:28:39;14.70;;;11.95;;
23113;SDS011;11726;50.122;8.832;2023-04-10T02:31:07;18.08;;;13.00;;
23113;SDS011;11726;50.122;8.832;2023-04-10T02:33:37;19.95;;;12.90;;
23113;SDS011;11726;50.122;8.832;2023-04-10T02:36:04;15.77;;;12.27;;
23113;SDS011;11726;50.122;8.832;2023-04-10T02:38:32;16.75;;;12.20;;
23113;SDS011;11726;50.122;8.832;2023-04-10T02:41:04;18.50;;;13.25;;
23113;SDS011;11726;50.122;8.832;2023-04-10T02:43:35;17.25;;;12.50;;
23113;SDS011;11726;50.122;8.832;2023-04-10T02:46:02;16.85;;;11.82;;
23113;SDS011;11726;50.122;8.832;2023-04-10T02:48:29;14.85;;;11.75;;
23113;SDS011;11726;50.122;8.832;2023-04-10T02:50:56;13.85;;;11.35;;
23113;SDS011;11726;50.122;8.832;2023-04-10T02:53:24;15.00;;;11.77;;
23113;SDS011;11726;50.122;8.832;2023-04-10T02:55:51;14.82;;;10.77;;
23113;SDS011;11726;50.122;8.832;2023-04-10T02:58:20;13.18;;;10.50;;
23113;SDS011;11726;50.122;8.832;2023-04-10T03:00:50;16.60;;;11.23;;
23113;SDS011;11726;50.122;8.832;2023-04-10T03:03:18;13.27;;;10.63;;
23113;SDS011;11726;50.122;8.832;2023-04-10T03:05:47;14.30;;;11.00;;
23113;SDS011;11726;50.122;8.832;2023-04-10T03:08:16;13.10;;;10.00;;
23113;SDS011;11726;50.122;8.832;2023-04-10T03:10:45;13.55;;;10.40;;
23113;SDS011;11726;50.122;8.832;2023-04-10T03:13:16;13.45;;;9.82;;
23113;SDS011;11726;50.122;8.832;2023-04-10T03:15:45;13.65;;;10.55;;
23113;SDS011;11726;50.122;8.832;2023-04-10T03:18:13;13.40;;;10.25;;
23113;SDS011;11726;50.122;8.832;2023-04-10T03:20:43;13.55;;;10.60;;
23113;SDS011;11726;50.122;8.832;2023-04-10T03:23:10;14.38;;;10.25;;
23113;SDS011;11726;50.122;8.832;2023-04-10T03:25:44;11.07;;;9.07;;
23113;SDS011;11726;50.122;8.832;2023-04-10T03:28:24;13.55;;;9.80;;
23113;SDS011;11726;50.122;8.832;2023-04-10T03:30:54;12.77;;;10.25;;
23113;SDS011;11726;50.122;8.832;2023-04-10T03:33:23;15.00;;;10.40;;
23113;SDS011;11726;50.122;8.832;2023-04-10T03:35:51;13.70;;;10.40;;
23113;SDS011;11726;50.122;8.832;2023-04-10T03:38:20;12.07;;;9.50;;
23113;SDS011;11726;50.122;8.832;2023-04-10T03:40:48;14.23;;;10.40;;
23113;SDS011;11726;50.122;8.832;2023-04-10T03:43:17;13.90;;;9.93;;
23113;SDS011;11726;50.122;8.832;2023-04-10T03:45:45;14.77;;;10.25;;
23113;SDS011;11726;50.122;8.832;2023-04-10T03:48:14;13.55;;;9.70;;
23113;SDS011;11726;50.122;8.832;2023-04-10T03:50:43;11.43;;;9.50;;
23113;SDS011;11726;50.122;8.832;2023-04-10T03:53:12;12.88;;;10.20;;
23113;SDS011;11726;50.122;8.832;2023-04-10T03:55:40;13.38;;;10.07;;
23113;SDS011;11726;50.122;8.832;2023-04-10T03:58:09;12.77;;;9.63;;
23113;SDS011;11726;50.122;8.832;2023-04-10T04:00:38;13.93;;;10.13;;
23113;SDS011;11726;50.122;8.832;2023-04-10T04:03:07;13.80;;;10.00;;
23113;SDS011;11726;50.122;8.832;2023-04-10T04:05:37;13.57;;;10.35;;
23113;SDS011;11726;50.122;8.832;2023-04-10T04:08:07;13.07;;;10.27;;
23113;SDS011;11726;50.122;8.832;2023-04-10T04:10:34;12.70;;;9.95;;
23113;SDS011;11726;50.122;8.832;2023-04-10T04:13:02;11.32;;;9.50;;
23113;SDS011;11726;50.122;8.832;2023-04-10T04:15:33;12.40;;;9.68;;
23113;SDS011;11726;50.122;8.832;2023-04-10T04:18:06;13.40;;;10.27;;
23113;SDS011;11726;50.122;8.832;2023-04-10T04:20:35;13.07;;;9.75;;
23113;SDS011;11726;50.122;8.832;2023-04-10T04:23:03;13.82;;;10.95;;
23113;SDS011;11726;50.122;8.832;2023-04-10T04:25:32;12.45;;;10.15;;
23113;SDS011;11726;50.122;8.832;2023-04-10T04:28:00;12.93;;;9.95;;
23113;SDS011;11726;50.122;8.832;2023-04-10T04:30:29;13.00;;;10.30;;
23113;SDS011;11726;50.122;8.832;2023-04-10T04:32:58;15.15;;;11.02;;
23113;SDS011;11726;50.122;8.832;2023-04-10T04:35:26;14.80;;;11.18;;
23113;SDS011;11726;50.122;8.832;2023-04-10T04:37:54;17.08;;;10.98;;
23113;SDS011;11726;50.122;8.832;2023-04-10T04:40:23;14.20;;;11.45;;
23113;SDS011;11726;50.122;8.832;2023-04-10T04:42:51;14.38;;;10.57;;
23113;SDS011;11726;50.122;8.832;2023-04-10T04:45:20;14.95;;;10.55;;
23113;SDS011;11726;50.122;8.832;2023-04-10T04:47:49;13.82;;;10.60;;
23113;SDS011;11726;50.122;8.832;2023-04-10T04:50:18;17.45;;;11.05;;
23113;SDS011;11726;50.122;8.832;2023-04-10T04:52:46;15.07;;;11.02;;
23113;SDS011;11726;50.122;8.832;2023-04-10T04:55:14;14.60;;;10.18;;
23113;SDS011;11726;50.122;8.832;2023-04-10T04:57:59;15.13;;;11.18;;
23113;SDS011;11726;50.122;8.832;2023-04-10T05:00:39;15.10;;;11.40;;
23113;SDS011;11726;50.122;8.832;2023-04-10T05:03:08;17.77;;;10.95;;
23113;SDS011;11726;50.122;8.832;2023-04-10T05:05:35;13.77;;;10.50;;
23113;SDS011;11726;50.122;8.832;2023-04-10T05:08:05;15.40;;;11.10;;
23113;SDS011;11726;50.122;8.832;2023-04-10T05:10:35;16.80;;;11.52;;
23113;SDS011;11726;50.122;8.832;2023-04-10T05:13:04;17.02;;;11.00;;
23113;SDS011;11726;50.122;8.832;2023-04-10T05:15:39;17.13;;;11.13;;
23113;SDS011;11726;50.122;8.832;2023-04-10T05:18:08;15.80;;;11.35;;
23113;SDS011;11726;50.122;8.832;2023-04-10T05:20:37;14.40;;;10.57;;
23113;SDS011;11726;50.122;8.832;2023-04-10T05:23:06;14.25;;;10.55;;
23113;SDS011;11726;50.122;8.832;2023-04-10T05:25:35;14.68;;;11.02;;
23113;SDS011;11726;50.122;8.832;2023-04-10T05:28:05;15.05;;;11.05;;
23113;SDS011;11726;50.122;8.832;2023-04-10T05:30:34;18.25;;;10.95;;
23113;SDS011;11726;50.122;8.832;2023-04-10T05:33:06;13.90;;;10.82;;
23113;SDS011;11726;50.122;8.832;2023-04-10T05:35:35;14.02;;;10.93;;
23113;SDS011;11726;50.122;8.832;2023-04-10T05:38:05;16.15;;;11.38;;
23113;SDS011;11726;50.122;8.832;2023-04-10T05:40:36;13.88;;;11.23;;
23113;SDS011;11726;50.122;8.832;2023-04-10T05:43:04;13.73;;;10.15;;
23113;SDS011;11726;50.122;8.832;2023-04-10T05:45:36;13.65;;;10.70;;
23113;SDS011;11726;50.122;8.832;2023-04-10T05:48:08;14.57;;;11.20;;
23113;SDS011;11726;50.122;8.832;2023-04-10T05:50:40;14.80;;;11.18;;
23113;SDS011;11726;50.122;8.832;2023-04-10T05:53:12;12.65;;;9.90;;
23113;SDS011;11726;50.122;8.832;2023-04-10T05:55:40;15.55;;;11.10;;
23113;SDS011;11726;50.122;8.832;2023-04-10T05:58:16;15.75;;;10.98;;
23113;SDS011;11726;50.122;8.832;2023-04-10T06:00:45;14.55;;;10.75;;
23113;SDS011;11726;50.122;8.832;2023-04-10T06:03:12;13.75;;;10.60;;
23113;SDS011;11726;50.122;8.832;2023-04-10T06:05:40;15.00;;;11.30;;
23113;SDS011;11726;50.122;8.832;2023-04-10T06:08:08;14.13;;;10.70;;
23113;SDS011;11726;50.122;8.832;2023-04-10T06:10:37;16.27;;;11.65;;
23113;SDS011;11726;50.122;8.832;2023-04-10T06:13:05;13.73;;;10.82;;
23113;SDS011;11726;50.122;8.832;2023-04-10T06:15:37;14.40;;;11.15;;
23113;SDS011;11726;50.122;8.832;2023-04-10T06:18:06;13.38;;;11.00;;
23113;SDS011;11726;50.122;8.832;2023-04-10T06:20:35;16.35;;;11.43;;
23113;SDS011;11726;50.122;8.832;2023-04-10T06:23:03;14.52;;;11.05;;
23113;SDS011;11726;50.122;8.832;2023-04-10T06:25:32;15.50;;;12.07;;
23113;SDS011;11726;50.122;8.832;2023-04-10T06:28:01;13.98;;;11.23;;
23113;SDS011;11726;50.122;8.832;2023-04-10T06:30:29;16.98;;;11.55;;
23113;SDS011;11726;50.122;8.832;2023-04-10T06:32:59;15.43;;;11.02;;
23113;SDS011;11726;50.122;8.832;2023-04-10T06:35:28;15.98;;;12.13;;
23113;SDS011;11726;50.122;8.832;2023-04-10T06:37:55;16.00;;;12.07;;
23113;SDS011;11726;50.122;8.832;2023-04-10T06:40:26;13.48;;;11.27;;
23113;SDS011;11726;50.122;8.832;2023-04-10T06:42:57;14.77;;;11.07;;
23113;SDS011;11726;50.122;8.832;2023-04-10T06:45:26;14.57;;;12.00;;
23113;SDS011;11726;50.122;8.832;2023-04-10T06:47:55;15.70;;;12.00;;
23113;SDS011;11726;50.122;8.832;2023-04-10T06:50:22;16.05;;;11.90;;
23113;SDS011;11726;50.122;8.832;2023-04-10T06:52:50;16.15;;;11.98;;
23113;SDS011;11726;50.122;8.832;2023-04-10T06:55:21;16.33;;;12.38;;
23113;SDS011;11726;50.122;8.832;2023-04-10T06:57:49;17.08;;;12.30;;
23113;SDS011;11726;50.122;8.832;2023-04-10T07:00:17;15.05;;;11.40;;
23113;SDS011;11726;50.122;8.832;2023-04-10T07:02:55;15.70;;;12.93;;
23113;SDS011;11726;50.122;8.832;2023-04-10T07:05:24;17.00;;;12.48;;
23113;SDS011;11726;50.122;8.832;2023-04-10T07:07:53;14.45;;;11.30;;
23113;SDS011;11726;50.122;8.832;2023-04-10T07:10:22;15.52;;;11.98;;
23113;SDS011;11726;50.122;8.832;2023-04-10T07:12:50;15.13;;;11.80;;
23113;SDS011;11726;50.122;8.832;2023-04-10T07:15:19;14.57;;;11.98;;
23113;SDS011;11726;50.122;8.832;2023-04-10T07:17:47;14.18;;;11.35;;
23113;SDS011;11726;50.122;8.832;2023-04-10T07:20:17;15.43;;;12.05;;
23113;SDS011;11726;50.122;8.832;2023-04-10T07:22:46;16.40;;;12.85;;
23113;SDS011;11726;50.122;8.832;2023-04-10T07:25:14;16.90;;;13.20;;
23113;SDS011;11726;50.122;8.832;2023-04-10T07:27:54;14.90;;;11.93;;
23113;SDS011;11726;50.122;8.832;2023-04-10T07:30:23;17.02;;;13.43;;
23113;SDS011;11726;50.122;8.832;2023-04-10T07:32:52;16.15;;;12.88;;
23113;SDS011;11726;50.122;8.832;2023-04-10T07:35:33;14.75;;;12.05;;
23113;SDS011;11726;50.122;8.832;2023-04-10T07:38:02;16.83;;;12.98;;
23113;SDS011;11726;50.122;8.832;2023-04-10T07:40:32;16.48;;;12.63;;
23113;SDS011;11726;50.122;8.832;2023-04-10T07:43:04;17.17;;;13.02;;
23113;SDS011;11726;50.122;8.832;2023-04-10T07:45:31;16.65;;;12.13;;
23113;SDS011;11726;50.122;8.832;2023-04-10T07:48:01;14.73;;;11.60;;
23113;SDS011;11726;50.122;8.832;2023-04-10T07:50:38;16.33;;;11.90;;
23113;SDS011;11726;50.122;8.832;2023-04-10T07:53:07;14.43;;;12.05;;
23113;SDS011;11726;50.122;8.832;2023-04-10T07:55:43;15.10;;;11.57;;
23113;SDS011;11726;50.122;8.832;2023-04-10T07:58:15;13.95;;;11.55;;
23113;SDS011;11726;50.122;8.832;2023-04-10T08:00:50;15.35;;;10.75;;
23113;SDS011;11726;50.122;8.832;2023-04-10T08:03:21;13.40;;;11.47;;
23113;SDS011;11726;50.122;8.832;2023-04-10T08:05:51;17.33;;;11.40;;
23113;SDS011;11726;50.122;8.832;2023-04-10T08:08:18;13.45;;;10.82;;
23113;SDS011;11726;50.122;8.832;2023-04-10T08:10:47;15.27;;;11.05;;
23113;SDS011;11726;50.122;8.832;2023-04-10T08:13:15;16.38;;;11.75;;
23113;SDS011;11726;50.122;8.832;2023-04-10T08:15:42;13.38;;;10.45;;
23113;SDS011;11726;50.122;8.832;2023-04-10T08:18:09;15.43;;;11.57;;
23113;SDS011;11726;50.122;8.832;2023-04-10T08:20:37;13.10;;;10.57;;
23113;SDS011;11726;50.122;8.832;2023-04-10T08:23:07;14.43;;;10.65;;
23113;SDS011;11726;50.122;8.832;2023-04-10T08:25:37;12.63;;;10.35;;
23113;SDS011;11726;50.122;8.832;2023-04-10T08:28:05;13.18;;;10.32;;
23113;SDS011;11726;50.122;8.832;2023-04-10T08:30:35;13.25;;;9.85;;
23113;SDS011;11726;50.122;8.832;2023-04-10T08:33:04;12.02;;;10.13;;
23113;SDS011;11726;50.122;8.832;2023-04-10T08:35:33;11.05;;;9.57;;
23113;SDS011;11726;50.122;8.832;2023-04-10T08:38:01;12.45;;;9.70;;
23113;SDS011;11726;50.122;8.832;2023-04-10T08:40:39;11.65;;;9.45;;
23113;SDS011;11726;50.122;8.832;2023-04-10T08:43:08;10.32;;;9.15;;
23113;SDS011;11726;50.122;8.832;2023-04-10T08:45:39;11.80;;;9.70;;
23113;SDS011;11726;50.122;8.832;2023-04-10T08:48:09;9.98;;;8.75;;
23113;SDS011;11726;50.122;8.832;2023-04-10T08:50:40;10.52;;;8.63;;
23113;SDS011;11726;50.122;8.832;2023-04-10T08:53:11;10.00;;;8.07;;
23113;SDS011;11726;50.122;8.832;2023-04-10T08:55:40;10.52;;;8.80;;
23113;SDS011;11726;50.122;8.832;2023-04-10T08:58:09;8.65;;;7.75;;
23113;SDS011;11726;50.122;8.832;2023-04-10T09:00:39;9.75;;;8.05;;
23113;SDS011;11726;50.122;8.832;2023-04-10T09:03:09;10.88;;;7.93;;
23113;SDS011;11726;50.122;8.832;2023-04-10T09:05:40;9.13;;;7.43;;
23113;SDS011;11726;50.122;8.832;2023-04-10T09:08:07;9.27;;;7.68;;
23113;SDS011;11726;50.122;8.832;2023-04-10T09:10:36;8.48;;;7.28;;
23113;SDS011;11726;50.122;8.832;2023-04-10T09:13:06;9.00;;;7.40;;
23113;SDS011;11726;50.122;8.832;2023-04-10T09:21:14;7.68;;;6.88;;
23113;SDS011;11726;50.122;8.832;2023-04-10T09:23:46;7.45;;;6.40;;
23113;SDS011;11726;50.122;8.832;2023-04-10T09:26:31;6.88;;;6.03;;
23113;SDS011;11726;50.122;8.832;2023-04-10T09:31:33;7.38;;;6.03;;
23113;SDS011;11726;50.122;8.832;2023-04-10T09:34:18;6.53;;;5.82;;
23113;SDS011;11726;50.122;8.832;2023-04-10T09:36:53;6.20;;;5.60;;
23113;SDS011;11726;50.122;8.832;2023-04-10T09:39:33;8.48;;;6.47;;
23113;SDS011;11726;50.122;8.832;2023-04-10T09:42:09;7.30;;;5.97;;
23113;SDS011;11726;50.122;8.832;2023-04-10T09:44:41;6.72;;;6.13;;
23113;SDS011;11726;50.122;8.832;2023-04-10T09:49:45;7.28;;;6.20;;
23113;SDS011;11726;50.122;8.832;2023-04-10T09:52:18;7.70;;;6.90;;
23113;SDS011;11726;50.122;8.832;2023-04-10T09:54:53;6.90;;;6.20;;
23113;SDS011;11726;50.122;8.832;2023-04-10T09:57:27;6.85;;;6.13;;
23113;SDS011;11726;50.122;8.832;2023-04-10T09:59:56;7.15;;;6.45;;
23113;SDS011;11726;50.122;8.832;2023-04-10T10:02:32;7.40;;;6.07;;
23113;SDS011;11726;50.122;8.832;2023-04-10T10:05:05;6.97;;;6.28;;
23113;SDS011;11726;50.122;8.832;2023-04-10T10:07:33;7.65;;;5.80;;
23113;SDS011;11726;50.122;8.832;2023-04-10T10:10:02;6.05;;;5.45;;
23113;SDS011;11726;50.122;8.832;2023-04-10T10:12:39;6.93;;;5.53;;
23113;SDS011;11726;50.122;8.832;2023-04-10T10:17:45;8.07;;;6.10;;
23113;SDS011;11726;50.122;8.832;2023-04-10T10:20:22;5.70;;;5.20;;
23113;SDS011;11726;50.122;8.832;2023-04-10T10:22:51;6.63;;;5.93;;
23113;SDS011;11726;50.122;8.832;2023-04-10T10:25:18;6.05;;;5.50;;
23113;SDS011;11726;50.122;8.832;2023-04-10T10:27:48;6.18;;;5.57;;
23113;SDS011;11726;50.122;8.832;2023-04-10T10:30:17;5.70;;;5.20;;
23113;SDS011;11726;50.122;8.832;2023-04-10T10:32:56;6.78;;;6.07;;
23113;SDS011;11726;50.122;8.832;2023-04-10T10:35:25;6.65;;;5.57;;
23113;SDS011;11726;50.122;8.832;2023-04-10T10:37:55;6.70;;;6.00;;
23113;SDS011;11726;50.122;8.832;2023-04-10T10:40:28;7.18;;;6.32;;
23113;SDS011;11726;50.122;8.832;2023-04-10T10:48:26;7.97;;;6.65;;
23113;SDS011;11726;50.122;8.832;2023-04-10T10:50:57;6.75;;;6.05;;
23113;SDS011;11726;50.122;8.832;2023-04-10T10:53:30;6.13;;;5.53;;
23113;SDS011;11726;50.122;8.832;2023-04-10T10:58:54;7.57;;;6.22;;
23113;SDS011;11726;50.122;8.832;2023-04-10T11:01:24;6.68;;;5.68;;
23113;SDS011;11726;50.122;8.832;2023-04-10T11:03:51;7.18;;;6.15;;
23113;SDS011;11726;50.122;8.832;2023-04-10T11:06:18;6.25;;;5.65;;
23113;SDS011;11726;50.122;8.832;2023-04-10T11:08:49;6.20;;;5.60;;
23113;SDS011;11726;50.122;8.832;2023-04-10T11:11:23;6.55;;;5.95;;
23113;SDS011;11726;50.122;8.832;2023-04-10T11:16:18;8.27;;;5.97;;
23113;SDS011;11726;50.122;8.832;2023-04-10T11:21:31;7.05;;;5.90;;
23113;SDS011;11726;50.122;8.832;2023-04-10T11:28:59;5.53;;;5.03;;
23113;SDS011;11726;50.122;8.832;2023-04-10T11:31:26;6.10;;;5.60;;
23113;SDS011;11726;50.122;8.832;2023-04-10T11:36:30;6.03;;;5.40;;
23113;SDS011;11726;50.122;8.832;2023-04-10T11:39:00;4.85;;;4.38;;
23113;SDS011;11726;50.122;8.832;2023-04-10T11:44:04;6.00;;;4.93;;
23113;SDS011;11726;50.122;8.832;2023-04-10T11:46:42;5.90;;;5.40;;
23113;SDS011;11726;50.122;8.832;2023-04-10T11:49:32;5.70;;;5.20;;
23113;SDS011;11726;50.122;8.832;2023-04-10T11:52:00;4.97;;;4.57;;
23113;SDS011;11726;50.122;8.832;2023-04-10T11:54:27;4.53;;;4.07;;
23113;SDS011;11726;50.122;8.832;2023-04-10T11:57:04;4.82;;;4.38;;
23113;SDS011;11726;50.122;8.832;2023-04-10T11:59:34;4.75;;;4.35;;
23113;SDS011;11726;50.122;8.832;2023-04-10T12:04:40;5.10;;;4.40;;
23113;SDS011;11726;50.122;8.832;2023-04-10T12:07:08;4.57;;;4.18;;
23113;SDS011;11726;50.122;8.832;2023-04-10T12:09:36;4.60;;;4.20;;
23113;SDS011;11726;50.122;8.832;2023-04-10T12:12:03;4.22;;;3.83;;
23113;SDS011;11726;50.122;8.832;2023-04-10T12:14:34;4.53;;;4.13;;
23113;SDS011;11726;50.122;8.832;2023-04-10T12:17:03;4.00;;;3.65;;
23113;SDS011;11726;50.122;8.832;2023-04-10T12:19:32;4.53;;;4.13;;
23113;SDS011;11726;50.122;8.832;2023-04-10T12:22:02;4.63;;;3.80;;
23113;SDS011;11726;50.122;8.832;2023-04-10T12:27:26;4.15;;;3.78;;
23113;SDS011;11726;50.122;8.832;2023-04-10T12:29:54;4.35;;;3.97;;
23113;SDS011;11726;50.122;8.832;2023-04-10T12:32:22;4.35;;;3.83;;
23113;SDS011;11726;50.122;8.832;2023-04-10T12:34:51;3.83;;;3.53;;
23113;SDS011;11726;50.122;8.832;2023-04-10T12:37:19;3.75;;;3.40;;
23113;SDS011;11726;50.122;8.832;2023-04-10T12:39:46;3.53;;;3.22;;
23113;SDS011;11726;50.122;8.832;2023-04-10T12:42:22;3.78;;;3.38;;
23113;SDS011;11726;50.122;8.832;2023-04-10T12:45:00;3.65;;;3.00;;
23113;SDS011;11726;50.122;8.832;2023-04-10T12:47:27;3.50;;;3.20;;
23113;SDS011;11726;50.122;8.832;2023-04-10T12:50:07;3.53;;;3.13;;
23113;SDS011;11726;50.122;8.832;2023-04-10T12:52:37;4.00;;;3.42;;
23113;SDS011;11726;50.122;8.832;2023-04-10T12:55:09;3.42;;;3.17;;
23113;SDS011;11726;50.122;8.832;2023-04-10T12:57:44;3.58;;;3.28;;
23113;SDS011;11726;50.122;8.832;2023-04-10T13:00:12;3.13;;;2.92;;
23113;SDS011;11726;50.122;8.832;2023-04-10T13:02:41;3.08;;;2.88;;
23113;SDS011;11726;50.122;8.832;2023-04-10T13:05:08;3.13;;;2.90;;
23113;SDS011;11726;50.122;8.832;2023-04-10T13:07:36;3.08;;;2.88;;
23113;SDS011;11726;50.122;8.832;2023-04-10T13:10:03;2.88;;;2.67;;
23113;SDS011;11726;50.122;8.832;2023-04-10T13:12:31;2.80;;;2.53;;
23113;SDS011;11726;50.122;8.832;2023-04-10T13:15:00;2.72;;;2.53;;
23113;SDS011;11726;50.122;8.832;2023-04-10T13:17:27;2.45;;;2.22;;
23113;SDS011;11726;50.122;8.832;2023-04-10T13:19:54;2.50;;;2.30;;
23113;SDS011;11726;50.122;8.832;2023-04-10T13:22:20;3.20;;;2.90;;
23113;SDS011;11726;50.122;8.832;2023-04-10T13:24:47;2.60;;;2.40;;
23113;SDS011;11726;50.122;8.832;2023-04-10T13:27:13;2.70;;;2.50;;
23113;SDS011;11726;50.122;8.832;2023-04-10T13:29:41;2.60;;;2.40;;
23113;SDS011;11726;50.122;8.832;2023-04-10T13:32:08;2.35;;;2.15;;
23113;SDS011;11726;50.122;8.832;2023-04-10T13:34:34;2.40;;;2.20;;
23113;SDS011;11726;50.122;8.832;2023-04-10T13:37:01;2.30;;;2.10;;
23113;SDS011;11726;50.122;8.832;2023-04-10T13:39:29;2.05;;;1.90;;
23113;SDS011;11726;50.122;8.832;2023-04-10T13:41:57;2.13;;;1.92;;
23113;SDS011;11726;50.122;8.832;2023-04-10T13:44:24;2.30;;;2.10;;
23113;SDS011;11726;50.122;8.832;2023-04-10T13:46:51;2.60;;;2.10;;
23113;SDS011;11726;50.122;8.832;2023-04-10T13:49:18;2.13;;;1.92;;
23113;SDS011;11726;50.122;8.832;2023-04-10T13:51:45;2.50;;;2.17;;
23113;SDS011;11726;50.122;8.832;2023-04-10T13:54:12;2.30;;;2.10;;
23113;SDS011;11726;50.122;8.832;2023-04-10T13:56:42;2.10;;;2.00;;
23113;SDS011;11726;50.122;8.832;2023-04-10T13:59:09;3.53;;;2.10;;
23113;SDS011;11726;50.122;8.832;2023-04-10T14:01:36;1.90;;;1.80;;
23113;SDS011;11726;50.122;8.832;2023-04-10T14:04:03;2.40;;;2.20;;
23113;SDS011;11726;50.122;8.832;2023-04-10T14:06:29;2.80;;;2.10;;
23113;SDS011;11726;50.122;8.832;2023-04-10T14:08:57;3.17;;;2.38;;
23113;SDS011;11726;50.122;8.832;2023-04-10T14:11:24;2.00;;;1.90;;
23113;SDS011;11726;50.122;8.832;2023-04-10T14:13:51;2.40;;;2.20;;
23113;SDS011;11726;50.122;8.832;2023-04-10T14:16:18;2.55;;;2.35;;
23113;SDS011;11726;50.122;8.832;2023-04-10T14:18:45;2.03;;;1.90;;
23113;SDS011;11726;50.122;8.832;2023-04-10T14:21:11;1.92;;;1.80;;
23113;SDS011;11726;50.122;8.832;2023-04-10T14:23:39;1.88;;;1.77;;
23113;SDS011;11726;50.122;8.832;2023-04-10T14:26:06;1.83;;;1.70;;
23113;SDS011;11726;50.122;8.832;2023-04-10T14:28:33;2.75;;;1.67;;
23113;SDS011;11726;50.122;8.832;2023-04-10T14:31:00;3.33;;;1.75;;
23113;SDS011;11726;50.122;8.832;2023-04-10T14:33:27;2.67;;;1.70;;
23113;SDS011;11726;50.122;8.832;2023-04-10T14:35:53;1.92;;;1.60;;
23113;SDS011;11726;50.122;8.832;2023-04-10T14:38:20;1.60;;;1.50;;
23113;SDS011;11726;50.122;8.832;2023-04-10T14:40:47;4.25;;;1.60;;
23113;SDS011;11726;50.122;8.832;2023-04-10T14:43:15;1.70;;;1.60;;
23113;SDS011;11726;50.122;8.832;2023-04-10T14:45:42;1.52;;;1.42;;
23113;SDS011;11726;50.122;8.832;2023-04-10T14:48:08;3.00;;;1.65;;
23113;SDS011;11726;50.122;8.832;2023-04-10T14:50:37;1.58;;;1.48;;
23113;SDS011;11726;50.122;8.832;2023-04-10T14:53:04;2.03;;;1.50;;
23113;SDS011;11726;50.122;8.832;2023-04-10T14:55:31;3.63;;;1.80;;
23113;SDS011;11726;50.122;8.832;2023-04-10T14:57:58;2.33;;;1.50;;
23113;SDS011;11726;50.122;8.832;2023-04-10T15:00:24;1.40;;;1.30;;
23113;SDS011;11726;50.122;8.832;2023-04-10T15:02:51;1.40;;;1.30;;
23113;SDS011;11726;50.122;8.832;2023-04-10T15:05:18;1.63;;;1.52;;
23113;SDS011;11726;50.122;8.832;2023-04-10T15:07:47;1.52;;;1.42;;
23113;SDS011;11726;50.122;8.832;2023-04-10T15:10:14;1.70;;;1.50;;
23113;SDS011;11726;50.122;8.832;2023-04-10T15:12:40;1.50;;;1.40;;
23113;SDS011;11726;50.122;8.832;2023-04-10T15:15:07;1.40;;;1.20;;
23113;SDS011;11726;50.122;8.832;2023-04-10T15:17:34;1.33;;;1.23;;
23113;SDS011;11726;50.122;8.832;2023-04-10T15:20:01;1.50;;;1.40;;
23113;SDS011;11726;50.122;8.832;2023-04-10T15:22:30;1.13;;;1.02;;
23113;SDS011;11726;50.122;8.832;2023-04-10T15:24:56;1.60;;;1.20;;
23113;SDS011;11726;50.122;8.832;2023-04-10T15:27:23;2.08;;;1.38;;
23113;SDS011;11726;50.122;8.832;2023-04-10T15:29:50;1.52;;;1.35;;
23113;SDS011;11726;50.122;8.832;2023-04-10T15:32:16;2.15;;;1.10;;
23113;SDS011;11726;50.122;8.832;2023-04-10T15:34:43;2.35;;;1.50;;
23113;SDS011;11726;50.122;8.832;2023-04-10T15:37:10;1.52;;;1.30;;